sensor_id;sensor_type;location;lat;lon;timestamp;P1;durP1;ratioP1;P2;durP2;ratioP2
20456;SDS011;10387;51.102;6.848;2023-08-31T00:01:11;4.43;;;2.83;;
20456;SDS011;10387;51.102;6.848;2023-08-31T00:03:37;3.63;;;3.17;;
20456;SDS011;10387;51.102;6.848;2023-08-31T00:06:03;6.30;;;3.50;;
20456;SDS011;10387;51.102;6.848;2023-08-31T00:08:29;5.33;;;3.40;;
20456;SDS011;10387;51.102;6.848;2023-08-31T00:10:56;4.60;;;3.20;;
20456;SDS011;10387;51.102;6.848;2023-08-31T00:13:23;3.97;;;3.50;;
20456;SDS011;10387;51.102;6.848;2023-08-31T00:15:49;5.73;;;3.50;;
20456;SDS011;10387;51.102;6.848;2023-08-31T00:18:15;5.40;;;3.23;;
20456;SDS011;10387;51.102;6.848;2023-08-31T00:20:41;4.30;;;3.37;;
20456;SDS011;10387;51.102;6.848;2023-08-31T00:23:08;5.33;;;3.80;;
20456;SDS011;10387;51.102;6.848;2023-08-31T00:25:34;6.87;;;4.00;;
20456;SDS011;10387;51.102;6.848;2023-08-31T00:28:00;6.07;;;3.67;;
20456;SDS011;10387;51.102;6.848;2023-08-31T00:30:30;6.60;;;4.07;;
20456;SDS011;10387;51.102;6.848;2023-08-31T00:32:57;6.63;;;4.23;;
20456;SDS011;10387;51.102;6.848;2023-08-31T00:35:26;5.70;;;4.27;;
20456;SDS011;10387;51.102;6.848;2023-08-31T00:37:53;6.27;;;4.23;;
20456;SDS011;10387;51.102;6.848;2023-08-31T00:40:23;4.23;;;3.77;;
20456;SDS011;10387;51.102;6.848;2023-08-31T00:42:49;5.20;;;4.10;;
20456;SDS011;10387;51.102;6.848;2023-08-31T00:45:17;7.40;;;4.07;;
20456;SDS011;10387;51.102;6.848;2023-08-31T00:47:46;7.63;;;4.23;;
20456;SDS011;10387;51.102;6.848;2023-08-31T00:50:15;7.20;;;4.57;;
20456;SDS011;10387;51.102;6.848;2023-08-31T00:52:41;6.17;;;4.50;;
20456;SDS011;10387;51.102;6.848;2023-08-31T00:55:12;6.10;;;4.57;;
20456;SDS011;10387;51.102;6.848;2023-08-31T00:57:38;5.40;;;4.33;;
20456;SDS011;10387;51.102;6.848;2023-08-31T01:00:06;5.93;;;4.50;;
20456;SDS011;10387;51.102;6.848;2023-08-31T01:02:47;5.20;;;4.20;;
20456;SDS011;10387;51.102;6.848;2023-08-31T01:05:27;6.47;;;4.40;;
20456;SDS011;10387;51.102;6.848;2023-08-31T01:08:03;5.53;;;4.60;;
20456;SDS011;10387;51.102;6.848;2023-08-31T01:13:02;8.40;;;5.23;;
20456;SDS011;10387;51.102;6.848;2023-08-31T01:15:30;8.23;;;5.33;;
20456;SDS011;10387;51.102;6.848;2023-08-31T01:17:57;5.80;;;4.73;;
20456;SDS011;10387;51.102;6.848;2023-08-31T01:23:13;8.40;;;5.10;;
20456;SDS011;10387;51.102;6.848;2023-08-31T01:25:41;5.50;;;4.83;;
20456;SDS011;10387;51.102;6.848;2023-08-31T01:28:08;6.53;;;4.80;;
20456;SDS011;10387;51.102;6.848;2023-08-31T01:30:35;6.03;;;5.13;;
20456;SDS011;10387;51.102;6.848;2023-08-31T01:33:02;5.97;;;4.57;;
20456;SDS011;10387;51.102;6.848;2023-08-31T01:35:28;6.63;;;4.73;;
20456;SDS011;10387;51.102;6.848;2023-08-31T01:37:57;5.27;;;4.30;;
20456;SDS011;10387;51.102;6.848;2023-08-31T01:40:30;8.20;;;4.90;;
20456;SDS011;10387;51.102;6.848;2023-08-31T01:42:57;6.83;;;4.73;;
20456;SDS011;10387;51.102;6.848;2023-08-31T01:45:25;7.83;;;5.67;;
20456;SDS011;10387;51.102;6.848;2023-08-31T01:47:51;7.90;;;5.53;;
20456;SDS011;10387;51.102;6.848;2023-08-31T01:50:18;7.37;;;5.03;;
20456;SDS011;10387;51.102;6.848;2023-08-31T01:52:44;6.37;;;5.70;;
20456;SDS011;10387;51.102;6.848;2023-08-31T01:55:10;6.13;;;4.57;;
20456;SDS011;10387;51.102;6.848;2023-08-31T01:57:41;7.10;;;5.13;;
20456;SDS011;10387;51.102;6.848;2023-08-31T02:00:19;8.37;;;5.53;;
20456;SDS011;10387;51.102;6.848;2023-08-31T02:02:49;9.27;;;5.70;;
20456;SDS011;10387;51.102;6.848;2023-08-31T02:05:15;6.30;;;5.23;;
20456;SDS011;10387;51.102;6.848;2023-08-31T02:07:41;6.47;;;5.43;;
20456;SDS011;10387;51.102;6.848;2023-08-31T02:10:08;7.77;;;4.97;;
20456;SDS011;10387;51.102;6.848;2023-08-31T02:12:34;6.93;;;5.37;;
20456;SDS011;10387;51.102;6.848;2023-08-31T02:15:03;10.73;;;6.23;;
20456;SDS011;10387;51.102;6.848;2023-08-31T02:17:30;8.27;;;5.80;;
20456;SDS011;10387;51.102;6.848;2023-08-31T02:19:58;7.43;;;6.07;;
20456;SDS011;10387;51.102;6.848;2023-08-31T02:22:26;7.00;;;5.63;;
20456;SDS011;10387;51.102;6.848;2023-08-31T02:24:52;7.27;;;5.90;;
20456;SDS011;10387;51.102;6.848;2023-08-31T02:27:18;6.30;;;5.27;;
20456;SDS011;10387;51.102;6.848;2023-08-31T02:29:47;7.80;;;5.57;;
20456;SDS011;10387;51.102;6.848;2023-08-31T02:32:14;6.60;;;5.23;;
20456;SDS011;10387;51.102;6.848;2023-08-31T02:34:40;6.80;;;5.40;;
20456;SDS011;10387;51.102;6.848;2023-08-31T02:37:06;7.40;;;5.57;;
20456;SDS011;10387;51.102;6.848;2023-08-31T02:39:32;8.43;;;6.00;;
20456;SDS011;10387;51.102;6.848;2023-08-31T02:41:58;7.53;;;5.87;;
20456;SDS011;10387;51.102;6.848;2023-08-31T02:44:24;6.17;;;5.43;;
20456;SDS011;10387;51.102;6.848;2023-08-31T02:46:52;10.33;;;5.80;;
20456;SDS011;10387;51.102;6.848;2023-08-31T02:49:18;6.93;;;5.60;;
20456;SDS011;10387;51.102;6.848;2023-08-31T02:51:44;7.20;;;5.30;;
20456;SDS011;10387;51.102;6.848;2023-08-31T02:54:10;8.23;;;6.07;;
20456;SDS011;10387;51.102;6.848;2023-08-31T02:56:36;6.27;;;5.50;;
20456;SDS011;10387;51.102;6.848;2023-08-31T02:59:02;6.13;;;5.20;;
20456;SDS011;10387;51.102;6.848;2023-08-31T03:01:28;6.67;;;5.13;;
20456;SDS011;10387;51.102;6.848;2023-08-31T03:03:54;5.70;;;5.20;;
20456;SDS011;10387;51.102;6.848;2023-08-31T03:06:21;7.83;;;5.90;;
20456;SDS011;10387;51.102;6.848;2023-08-31T03:08:48;5.93;;;5.10;;
20456;SDS011;10387;51.102;6.848;2023-08-31T03:11:14;8.87;;;5.40;;
20456;SDS011;10387;51.102;6.848;2023-08-31T03:13:41;10.03;;;5.53;;
20456;SDS011;10387;51.102;6.848;2023-08-31T03:16:07;7.33;;;5.57;;
20456;SDS011;10387;51.102;6.848;2023-08-31T03:18:33;6.70;;;5.27;;
20456;SDS011;10387;51.102;6.848;2023-08-31T03:21:00;7.23;;;5.07;;
20456;SDS011;10387;51.102;6.848;2023-08-31T03:23:26;6.03;;;5.20;;
20456;SDS011;10387;51.102;6.848;2023-08-31T03:25:52;7.70;;;5.80;;
20456;SDS011;10387;51.102;6.848;2023-08-31T03:28:19;6.43;;;5.50;;
20456;SDS011;10387;51.102;6.848;2023-08-31T03:30:45;6.00;;;5.00;;
20456;SDS011;10387;51.102;6.848;2023-08-31T03:33:11;6.67;;;5.40;;
20456;SDS011;10387;51.102;6.848;2023-08-31T03:35:38;6.37;;;5.30;;
20456;SDS011;10387;51.102;6.848;2023-08-31T03:38:04;7.60;;;6.03;;
20456;SDS011;10387;51.102;6.848;2023-08-31T03:40:33;6.13;;;5.23;;
20456;SDS011;10387;51.102;6.848;2023-08-31T03:43:00;5.87;;;5.10;;
20456;SDS011;10387;51.102;6.848;2023-08-31T03:45:26;6.53;;;4.77;;
20456;SDS011;10387;51.102;6.848;2023-08-31T03:47:52;5.60;;;5.00;;
20456;SDS011;10387;51.102;6.848;2023-08-31T03:50:18;6.10;;;5.20;;
20456;SDS011;10387;51.102;6.848;2023-08-31T03:52:45;5.90;;;4.97;;
20456;SDS011;10387;51.102;6.848;2023-08-31T03:55:11;7.37;;;4.73;;
20456;SDS011;10387;51.102;6.848;2023-08-31T03:57:37;7.60;;;5.30;;
20456;SDS011;10387;51.102;6.848;2023-08-31T04:00:12;5.30;;;4.80;;
20456;SDS011;10387;51.102;6.848;2023-08-31T04:02:44;6.63;;;4.77;;
20456;SDS011;10387;51.102;6.848;2023-08-31T04:05:12;8.83;;;5.47;;
20456;SDS011;10387;51.102;6.848;2023-08-31T04:07:42;6.20;;;4.60;;
20456;SDS011;10387;51.102;6.848;2023-08-31T04:10:09;7.70;;;4.97;;
20456;SDS011;10387;51.102;6.848;2023-08-31T04:12:35;5.80;;;4.77;;
20456;SDS011;10387;51.102;6.848;2023-08-31T04:15:01;6.13;;;5.20;;
20456;SDS011;10387;51.102;6.848;2023-08-31T04:17:29;7.83;;;5.03;;
20456;SDS011;10387;51.102;6.848;2023-08-31T04:19:55;7.67;;;5.00;;
20456;SDS011;10387;51.102;6.848;2023-08-31T04:22:21;6.40;;;5.37;;
20456;SDS011;10387;51.102;6.848;2023-08-31T04:24:47;7.73;;;5.53;;
20456;SDS011;10387;51.102;6.848;2023-08-31T04:27:13;7.90;;;5.27;;
20456;SDS011;10387;51.102;6.848;2023-08-31T04:29:39;6.70;;;5.53;;
20456;SDS011;10387;51.102;6.848;2023-08-31T04:32:05;5.93;;;5.13;;
20456;SDS011;10387;51.102;6.848;2023-08-31T04:34:31;6.67;;;5.80;;
20456;SDS011;10387;51.102;6.848;2023-08-31T04:36:57;6.33;;;5.60;;
20456;SDS011;10387;51.102;6.848;2023-08-31T04:39:24;8.00;;;5.57;;
20456;SDS011;10387;51.102;6.848;2023-08-31T04:41:50;6.60;;;5.90;;
20456;SDS011;10387;51.102;6.848;2023-08-31T04:44:16;6.70;;;5.80;;
20456;SDS011;10387;51.102;6.848;2023-08-31T04:46:44;8.83;;;6.10;;
20456;SDS011;10387;51.102;6.848;2023-08-31T04:49:10;6.63;;;5.87;;
20456;SDS011;10387;51.102;6.848;2023-08-31T04:51:36;7.33;;;6.07;;
20456;SDS011;10387;51.102;6.848;2023-08-31T04:54:04;7.70;;;6.30;;
20456;SDS011;10387;51.102;6.848;2023-08-31T04:56:31;6.00;;;5.50;;
20456;SDS011;10387;51.102;6.848;2023-08-31T04:58:58;6.57;;;5.87;;
20456;SDS011;10387;51.102;6.848;2023-08-31T05:01:25;6.60;;;5.70;;
20456;SDS011;10387;51.102;6.848;2023-08-31T05:03:52;8.27;;;6.50;;
20456;SDS011;10387;51.102;6.848;2023-08-31T05:06:19;6.60;;;5.53;;
20456;SDS011;10387;51.102;6.848;2023-08-31T05:08:49;7.80;;;5.97;;
20456;SDS011;10387;51.102;6.848;2023-08-31T05:11:15;8.00;;;6.40;;
20456;SDS011;10387;51.102;6.848;2023-08-31T05:13:41;6.67;;;5.80;;
20456;SDS011;10387;51.102;6.848;2023-08-31T05:16:09;9.80;;;6.80;;
20456;SDS011;10387;51.102;6.848;2023-08-31T05:18:35;10.37;;;6.50;;
20456;SDS011;10387;51.102;6.848;2023-08-31T05:21:03;8.57;;;6.40;;
20456;SDS011;10387;51.102;6.848;2023-08-31T05:23:29;9.03;;;6.37;;
20456;SDS011;10387;51.102;6.848;2023-08-31T05:25:55;8.70;;;6.80;;
20456;SDS011;10387;51.102;6.848;2023-08-31T05:28:22;7.30;;;6.13;;
20456;SDS011;10387;51.102;6.848;2023-08-31T05:30:49;7.13;;;5.83;;
20456;SDS011;10387;51.102;6.848;2023-08-31T05:33:16;7.93;;;6.50;;
20456;SDS011;10387;51.102;6.848;2023-08-31T05:35:42;8.60;;;6.57;;
20456;SDS011;10387;51.102;6.848;2023-08-31T05:38:08;7.73;;;6.70;;
20456;SDS011;10387;51.102;6.848;2023-08-31T05:40:34;7.80;;;6.50;;
20456;SDS011;10387;51.102;6.848;2023-08-31T05:43:00;8.03;;;6.30;;
20456;SDS011;10387;51.102;6.848;2023-08-31T05:45:26;8.33;;;6.40;;
20456;SDS011;10387;51.102;6.848;2023-08-31T05:47:52;8.47;;;6.30;;
20456;SDS011;10387;51.102;6.848;2023-08-31T05:50:18;7.10;;;6.30;;
20456;SDS011;10387;51.102;6.848;2023-08-31T05:52:44;7.03;;;6.20;;
20456;SDS011;10387;51.102;6.848;2023-08-31T05:55:10;6.97;;;6.10;;
20456;SDS011;10387;51.102;6.848;2023-08-31T05:57:37;6.87;;;6.17;;
20456;SDS011;10387;51.102;6.848;2023-08-31T06:00:04;7.33;;;5.70;;
20456;SDS011;10387;51.102;6.848;2023-08-31T06:02:37;6.43;;;5.80;;
20456;SDS011;10387;51.102;6.848;2023-08-31T06:05:05;7.80;;;6.00;;
20456;SDS011;10387;51.102;6.848;2023-08-31T06:07:31;8.50;;;5.70;;
20456;SDS011;10387;51.102;6.848;2023-08-31T06:09:58;8.53;;;6.27;;
20456;SDS011;10387;51.102;6.848;2023-08-31T06:12:24;6.67;;;5.97;;
20456;SDS011;10387;51.102;6.848;2023-08-31T06:14:50;8.87;;;5.67;;
20456;SDS011;10387;51.102;6.848;2023-08-31T06:17:16;8.33;;;5.43;;
20456;SDS011;10387;51.102;6.848;2023-08-31T06:19:42;7.40;;;6.00;;
20456;SDS011;10387;51.102;6.848;2023-08-31T06:22:08;9.93;;;5.57;;
20456;SDS011;10387;51.102;6.848;2023-08-31T06:24:34;7.27;;;5.53;;
20456;SDS011;10387;51.102;6.848;2023-08-31T06:27:01;5.77;;;5.27;;
20456;SDS011;10387;51.102;6.848;2023-08-31T06:29:30;6.37;;;5.47;;
20456;SDS011;10387;51.102;6.848;2023-08-31T06:31:56;6.10;;;5.50;;
20456;SDS011;10387;51.102;6.848;2023-08-31T06:34:23;6.37;;;5.13;;
20456;SDS011;10387;51.102;6.848;2023-08-31T06:36:49;5.23;;;4.73;;
20456;SDS011;10387;51.102;6.848;2023-08-31T06:39:15;6.47;;;5.03;;
20456;SDS011;10387;51.102;6.848;2023-08-31T06:41:42;5.93;;;5.07;;
20456;SDS011;10387;51.102;6.848;2023-08-31T06:44:08;5.47;;;4.80;;
20456;SDS011;10387;51.102;6.848;2023-08-31T06:46:34;6.70;;;5.10;;
20456;SDS011;10387;51.102;6.848;2023-08-31T06:49:03;6.93;;;4.93;;
20456;SDS011;10387;51.102;6.848;2023-08-31T06:51:30;6.50;;;4.77;;
20456;SDS011;10387;51.102;6.848;2023-08-31T06:53:56;6.37;;;4.43;;
20456;SDS011;10387;51.102;6.848;2023-08-31T06:56:27;8.07;;;4.70;;
20456;SDS011;10387;51.102;6.848;2023-08-31T06:58:53;6.30;;;4.80;;
20456;SDS011;10387;51.102;6.848;2023-08-31T07:01:20;5.80;;;4.43;;
20456;SDS011;10387;51.102;6.848;2023-08-31T07:03:46;6.07;;;4.60;;
20456;SDS011;10387;51.102;6.848;2023-08-31T07:06:12;5.37;;;4.30;;
20456;SDS011;10387;51.102;6.848;2023-08-31T07:08:38;4.77;;;4.13;;
20456;SDS011;10387;51.102;6.848;2023-08-31T07:11:06;4.87;;;4.33;;
20456;SDS011;10387;51.102;6.848;2023-08-31T07:13:32;8.93;;;4.13;;
20456;SDS011;10387;51.102;6.848;2023-08-31T07:15:58;5.23;;;3.87;;
20456;SDS011;10387;51.102;6.848;2023-08-31T07:18:26;5.47;;;4.10;;
20456;SDS011;10387;51.102;6.848;2023-08-31T07:20:52;6.47;;;4.00;;
20456;SDS011;10387;51.102;6.848;2023-08-31T07:23:18;7.67;;;4.30;;
20456;SDS011;10387;51.102;6.848;2023-08-31T07:25:44;6.67;;;3.80;;
20456;SDS011;10387;51.102;6.848;2023-08-31T07:28:10;5.43;;;3.93;;
20456;SDS011;10387;51.102;6.848;2023-08-31T07:30:36;5.87;;;3.90;;
20456;SDS011;10387;51.102;6.848;2023-08-31T07:33:03;4.53;;;3.50;;
20456;SDS011;10387;51.102;6.848;2023-08-31T07:35:29;4.73;;;3.53;;
20456;SDS011;10387;51.102;6.848;2023-08-31T07:37:55;4.47;;;3.57;;
20456;SDS011;10387;51.102;6.848;2023-08-31T07:40:22;5.07;;;3.23;;
20456;SDS011;10387;51.102;6.848;2023-08-31T07:42:48;5.00;;;3.47;;
20456;SDS011;10387;51.102;6.848;2023-08-31T07:45:15;4.13;;;3.70;;
20456;SDS011;10387;51.102;6.848;2023-08-31T07:47:41;4.53;;;3.30;;
20456;SDS011;10387;51.102;6.848;2023-08-31T07:50:07;4.43;;;3.27;;
20456;SDS011;10387;51.102;6.848;2023-08-31T07:52:33;5.50;;;3.50;;
20456;SDS011;10387;51.102;6.848;2023-08-31T07:55:01;5.07;;;3.90;;
20456;SDS011;10387;51.102;6.848;2023-08-31T07:57:27;4.93;;;3.67;;
20456;SDS011;10387;51.102;6.848;2023-08-31T07:59:54;6.37;;;3.80;;
20456;SDS011;10387;51.102;6.848;2023-08-31T08:02:20;5.30;;;3.40;;
20456;SDS011;10387;51.102;6.848;2023-08-31T08:04:47;5.63;;;3.50;;
20456;SDS011;10387;51.102;6.848;2023-08-31T08:07:13;3.80;;;3.33;;
20456;SDS011;10387;51.102;6.848;2023-08-31T08:09:39;3.30;;;2.87;;
20456;SDS011;10387;51.102;6.848;2023-08-31T08:12:05;4.17;;;3.23;;
20456;SDS011;10387;51.102;6.848;2023-08-31T08:14:32;4.07;;;2.87;;
20456;SDS011;10387;51.102;6.848;2023-08-31T08:16:58;4.33;;;3.17;;
20456;SDS011;10387;51.102;6.848;2023-08-31T08:19:25;5.43;;;2.73;;
20456;SDS011;10387;51.102;6.848;2023-08-31T08:21:51;5.60;;;3.13;;
20456;SDS011;10387;51.102;6.848;2023-08-31T08:24:17;4.03;;;2.30;;
20456;SDS011;10387;51.102;6.848;2023-08-31T08:26:43;6.93;;;2.83;;
20456;SDS011;10387;51.102;6.848;2023-08-31T08:29:09;7.23;;;3.50;;
20456;SDS011;10387;51.102;6.848;2023-08-31T08:31:35;5.03;;;3.13;;
20456;SDS011;10387;51.102;6.848;2023-08-31T08:34:02;8.13;;;3.10;;
20456;SDS011;10387;51.102;6.848;2023-08-31T08:36:28;3.93;;;2.60;;
20456;SDS011;10387;51.102;6.848;2023-08-31T08:38:55;3.97;;;2.40;;
20456;SDS011;10387;51.102;6.848;2023-08-31T08:41:23;5.33;;;2.60;;
20456;SDS011;10387;51.102;6.848;2023-08-31T08:43:53;2.53;;;2.33;;
20456;SDS011;10387;51.102;6.848;2023-08-31T08:46:19;3.77;;;2.90;;
20456;SDS011;10387;51.102;6.848;2023-08-31T08:48:46;4.33;;;2.60;;
20456;SDS011;10387;51.102;6.848;2023-08-31T08:51:13;4.57;;;2.97;;
20456;SDS011;10387;51.102;6.848;2023-08-31T08:53:41;3.67;;;2.43;;
20456;SDS011;10387;51.102;6.848;2023-08-31T08:56:08;4.53;;;3.23;;
20456;SDS011;10387;51.102;6.848;2023-08-31T08:58:35;3.73;;;2.70;;
20456;SDS011;10387;51.102;6.848;2023-08-31T09:01:02;2.93;;;2.23;;
20456;SDS011;10387;51.102;6.848;2023-08-31T09:03:30;2.90;;;2.10;;
20456;SDS011;10387;51.102;6.848;2023-08-31T09:05:58;4.53;;;2.60;;
20456;SDS011;10387;51.102;6.848;2023-08-31T09:08:28;3.93;;;2.70;;
20456;SDS011;10387;51.102;6.848;2023-08-31T09:10:57;3.67;;;2.50;;
20456;SDS011;10387;51.102;6.848;2023-08-31T09:13:27;3.67;;;2.60;;
20456;SDS011;10387;51.102;6.848;2023-08-31T09:15:56;3.23;;;2.47;;
20456;SDS011;10387;51.102;6.848;2023-08-31T09:20:52;4.37;;;2.33;;
20456;SDS011;10387;51.102;6.848;2023-08-31T09:23:18;3.33;;;2.30;;
20456;SDS011;10387;51.102;6.848;2023-08-31T09:25:45;4.43;;;2.33;;
20456;SDS011;10387;51.102;6.848;2023-08-31T09:28:14;5.03;;;2.57;;
20456;SDS011;10387;51.102;6.848;2023-08-31T09:30:40;5.87;;;2.43;;
20456;SDS011;10387;51.102;6.848;2023-08-31T09:33:07;3.60;;;2.57;;
20456;SDS011;10387;51.102;6.848;2023-08-31T09:35:39;3.50;;;2.47;;
20456;SDS011;10387;51.102;6.848;2023-08-31T09:38:09;4.60;;;2.47;;
20456;SDS011;10387;51.102;6.848;2023-08-31T09:40:36;4.97;;;2.60;;
20456;SDS011;10387;51.102;6.848;2023-08-31T09:43:02;4.73;;;2.60;;
20456;SDS011;10387;51.102;6.848;2023-08-31T09:45:29;2.50;;;2.23;;
20456;SDS011;10387;51.102;6.848;2023-08-31T09:47:57;5.70;;;3.20;;
20456;SDS011;10387;51.102;6.848;2023-08-31T09:50:24;4.13;;;2.70;;
20456;SDS011;10387;51.102;6.848;2023-08-31T09:52:51;3.97;;;3.07;;
20456;SDS011;10387;51.102;6.848;2023-08-31T09:55:21;3.70;;;3.07;;
20456;SDS011;10387;51.102;6.848;2023-08-31T09:57:48;2.87;;;2.53;;
20456;SDS011;10387;51.102;6.848;2023-08-31T10:00:15;3.40;;;2.70;;
20456;SDS011;10387;51.102;6.848;2023-08-31T10:02:43;5.53;;;3.10;;
20456;SDS011;10387;51.102;6.848;2023-08-31T10:05:09;4.30;;;2.60;;
20456;SDS011;10387;51.102;6.848;2023-08-31T10:07:36;3.57;;;2.50;;
20456;SDS011;10387;51.102;6.848;2023-08-31T10:10:03;4.27;;;2.70;;
20456;SDS011;10387;51.102;6.848;2023-08-31T10:12:29;4.70;;;2.70;;
20456;SDS011;10387;51.102;6.848;2023-08-31T10:14:56;3.60;;;2.73;;
20456;SDS011;10387;51.102;6.848;2023-08-31T10:17:24;4.67;;;2.43;;
20456;SDS011;10387;51.102;6.848;2023-08-31T10:19:51;3.80;;;2.80;;
20456;SDS011;10387;51.102;6.848;2023-08-31T10:22:18;4.37;;;2.60;;
20456;SDS011;10387;51.102;6.848;2023-08-31T10:25:03;4.80;;;3.10;;
20456;SDS011;10387;51.102;6.848;2023-08-31T10:27:41;3.90;;;2.77;;
20456;SDS011;10387;51.102;6.848;2023-08-31T10:38:14;4.50;;;2.90;;
20456;SDS011;10387;51.102;6.848;2023-08-31T10:40:40;4.13;;;2.40;;
20456;SDS011;10387;51.102;6.848;2023-08-31T10:43:16;4.17;;;2.67;;
20456;SDS011;10387;51.102;6.848;2023-08-31T10:45:45;3.63;;;2.17;;
20456;SDS011;10387;51.102;6.848;2023-08-31T10:48:12;2.77;;;2.17;;
20456;SDS011;10387;51.102;6.848;2023-08-31T10:50:43;3.93;;;2.07;;
20456;SDS011;10387;51.102;6.848;2023-08-31T10:53:10;5.77;;;2.50;;
20456;SDS011;10387;51.102;6.848;2023-08-31T10:55:52;3.93;;;2.60;;
20456;SDS011;10387;51.102;6.848;2023-08-31T10:58:18;4.20;;;2.80;;
20456;SDS011;10387;51.102;6.848;2023-08-31T11:00:51;3.80;;;2.70;;
20456;SDS011;10387;51.102;6.848;2023-08-31T11:03:17;4.37;;;2.57;;
20456;SDS011;10387;51.102;6.848;2023-08-31T11:05:53;3.73;;;2.20;;
20456;SDS011;10387;51.102;6.848;2023-08-31T11:08:25;6.33;;;2.87;;
20456;SDS011;10387;51.102;6.848;2023-08-31T11:10:52;4.63;;;3.10;;
20456;SDS011;10387;51.102;6.848;2023-08-31T11:13:19;4.00;;;2.50;;
20456;SDS011;10387;51.102;6.848;2023-08-31T11:15:45;3.97;;;2.10;;
20456;SDS011;10387;51.102;6.848;2023-08-31T11:18:12;3.10;;;2.00;;
20456;SDS011;10387;51.102;6.848;2023-08-31T11:20:41;4.17;;;2.40;;
20456;SDS011;10387;51.102;6.848;2023-08-31T11:23:08;6.03;;;2.43;;
20456;SDS011;10387;51.102;6.848;2023-08-31T11:25:34;5.17;;;2.70;;
20456;SDS011;10387;51.102;6.848;2023-08-31T11:28:01;5.20;;;2.50;;
20456;SDS011;10387;51.102;6.848;2023-08-31T11:30:30;5.97;;;2.40;;
20456;SDS011;10387;51.102;6.848;2023-08-31T11:32:56;3.70;;;2.37;;
20456;SDS011;10387;51.102;6.848;2023-08-31T11:35:23;2.77;;;2.20;;
20456;SDS011;10387;51.102;6.848;2023-08-31T11:37:50;3.40;;;2.20;;
20456;SDS011;10387;51.102;6.848;2023-08-31T11:40:16;4.07;;;2.30;;
20456;SDS011;10387;51.102;6.848;2023-08-31T11:42:43;3.97;;;2.33;;
20456;SDS011;10387;51.102;6.848;2023-08-31T11:45:09;3.00;;;2.40;;
20456;SDS011;10387;51.102;6.848;2023-08-31T11:47:36;5.10;;;2.37;;
20456;SDS011;10387;51.102;6.848;2023-08-31T11:50:04;3.37;;;2.00;;
20456;SDS011;10387;51.102;6.848;2023-08-31T11:52:31;3.33;;;2.10;;
20456;SDS011;10387;51.102;6.848;2023-08-31T11:54:57;3.63;;;2.00;;
20456;SDS011;10387;51.102;6.848;2023-08-31T11:57:26;2.43;;;2.20;;
20456;SDS011;10387;51.102;6.848;2023-08-31T11:59:55;2.30;;;2.10;;
20456;SDS011;10387;51.102;6.848;2023-08-31T12:02:22;2.63;;;2.10;;
20456;SDS011;10387;51.102;6.848;2023-08-31T12:04:48;2.67;;;1.93;;
20456;SDS011;10387;51.102;6.848;2023-08-31T12:07:17;3.50;;;2.00;;
20456;SDS011;10387;51.102;6.848;2023-08-31T12:09:44;3.00;;;1.90;;
20456;SDS011;10387;51.102;6.848;2023-08-31T12:12:11;2.20;;;1.70;;
20456;SDS011;10387;51.102;6.848;2023-08-31T12:14:39;3.63;;;1.80;;
20456;SDS011;10387;51.102;6.848;2023-08-31T12:17:06;2.43;;;1.87;;
20456;SDS011;10387;51.102;6.848;2023-08-31T12:19:33;4.03;;;1.70;;
20456;SDS011;10387;51.102;6.848;2023-08-31T12:21:59;3.60;;;1.90;;
20456;SDS011;10387;51.102;6.848;2023-08-31T12:24:25;3.03;;;2.20;;
20456;SDS011;10387;51.102;6.848;2023-08-31T12:26:52;4.67;;;2.07;;
20456;SDS011;10387;51.102;6.848;2023-08-31T12:29:19;2.70;;;2.00;;
20456;SDS011;10387;51.102;6.848;2023-08-31T12:31:45;3.33;;;2.90;;
20456;SDS011;10387;51.102;6.848;2023-08-31T12:34:12;4.30;;;2.27;;
20456;SDS011;10387;51.102;6.848;2023-08-31T12:36:42;2.53;;;2.30;;
20456;SDS011;10387;51.102;6.848;2023-08-31T12:39:08;4.77;;;2.33;;
20456;SDS011;10387;51.102;6.848;2023-08-31T12:41:37;3.77;;;2.20;;
20456;SDS011;10387;51.102;6.848;2023-08-31T12:44:03;2.33;;;2.00;;
20456;SDS011;10387;51.102;6.848;2023-08-31T12:46:30;4.03;;;2.10;;
20456;SDS011;10387;51.102;6.848;2023-08-31T12:48:56;4.03;;;2.97;;
20456;SDS011;10387;51.102;6.848;2023-08-31T12:51:22;5.00;;;2.63;;
20456;SDS011;10387;51.102;6.848;2023-08-31T12:53:49;3.17;;;2.30;;
20456;SDS011;10387;51.102;6.848;2023-08-31T12:56:17;3.60;;;2.00;;
20456;SDS011;10387;51.102;6.848;2023-08-31T12:58:49;2.30;;;2.03;;
20456;SDS011;10387;51.102;6.848;2023-08-31T13:01:16;3.70;;;2.40;;
20456;SDS011;10387;51.102;6.848;2023-08-31T13:03:43;2.57;;;2.23;;
20456;SDS011;10387;51.102;6.848;2023-08-31T13:06:09;4.37;;;2.70;;
20456;SDS011;10387;51.102;6.848;2023-08-31T13:08:35;3.77;;;2.87;;
20456;SDS011;10387;51.102;6.848;2023-08-31T13:11:01;6.10;;;2.87;;
20456;SDS011;10387;51.102;6.848;2023-08-31T13:13:29;4.50;;;2.70;;
20456;SDS011;10387;51.102;6.848;2023-08-31T13:15:56;4.27;;;2.57;;
20456;SDS011;10387;51.102;6.848;2023-08-31T13:18:22;3.50;;;2.57;;
20456;SDS011;10387;51.102;6.848;2023-08-31T13:20:52;4.37;;;3.07;;
20456;SDS011;10387;51.102;6.848;2023-08-31T13:23:19;5.80;;;2.90;;
20456;SDS011;10387;51.102;6.848;2023-08-31T13:25:45;4.37;;;3.23;;
20456;SDS011;10387;51.102;6.848;2023-08-31T13:28:11;6.80;;;3.03;;
20456;SDS011;10387;51.102;6.848;2023-08-31T13:30:37;3.97;;;2.83;;
20456;SDS011;10387;51.102;6.848;2023-08-31T13:33:03;4.47;;;3.20;;
20456;SDS011;10387;51.102;6.848;2023-08-31T13:35:30;3.67;;;2.97;;
20456;SDS011;10387;51.102;6.848;2023-08-31T13:37:56;4.73;;;2.60;;
20456;SDS011;10387;51.102;6.848;2023-08-31T13:40:25;8.43;;;2.80;;
20456;SDS011;10387;51.102;6.848;2023-08-31T13:42:56;4.57;;;2.93;;
20456;SDS011;10387;51.102;6.848;2023-08-31T13:45:24;4.27;;;3.03;;
20456;SDS011;10387;51.102;6.848;2023-08-31T13:47:50;5.00;;;2.93;;
20456;SDS011;10387;51.102;6.848;2023-08-31T13:50:16;3.77;;;3.00;;
20456;SDS011;10387;51.102;6.848;2023-08-31T13:52:43;4.93;;;3.07;;
20456;SDS011;10387;51.102;6.848;2023-08-31T13:55:09;4.17;;;2.20;;
20456;SDS011;10387;51.102;6.848;2023-08-31T13:57:35;7.23;;;2.80;;
20456;SDS011;10387;51.102;6.848;2023-08-31T14:00:01;5.33;;;2.83;;
20456;SDS011;10387;51.102;6.848;2023-08-31T14:02:35;2.83;;;2.00;;
20456;SDS011;10387;51.102;6.848;2023-08-31T14:05:02;3.83;;;2.60;;
20456;SDS011;10387;51.102;6.848;2023-08-31T14:07:28;3.77;;;2.80;;
20456;SDS011;10387;51.102;6.848;2023-08-31T14:09:54;5.10;;;2.97;;
20456;SDS011;10387;51.102;6.848;2023-08-31T14:12:20;3.43;;;2.53;;
20456;SDS011;10387;51.102;6.848;2023-08-31T14:14:47;3.60;;;2.63;;
20456;SDS011;10387;51.102;6.848;2023-08-31T14:17:13;3.90;;;2.60;;
20456;SDS011;10387;51.102;6.848;2023-08-31T14:19:39;4.77;;;3.20;;
20456;SDS011;10387;51.102;6.848;2023-08-31T14:22:05;4.83;;;3.10;;
20456;SDS011;10387;51.102;6.848;2023-08-31T14:24:31;5.50;;;2.93;;
20456;SDS011;10387;51.102;6.848;2023-08-31T14:26:57;3.00;;;2.63;;
20456;SDS011;10387;51.102;6.848;2023-08-31T14:29:24;4.00;;;2.93;;
20456;SDS011;10387;51.102;6.848;2023-08-31T14:31:50;5.37;;;2.60;;
20456;SDS011;10387;51.102;6.848;2023-08-31T14:34:18;5.33;;;2.60;;
20456;SDS011;10387;51.102;6.848;2023-08-31T14:36:44;3.53;;;2.53;;
20456;SDS011;10387;51.102;6.848;2023-08-31T14:39:10;3.80;;;2.40;;
20456;SDS011;10387;51.102;6.848;2023-08-31T14:41:36;2.47;;;2.27;;
20456;SDS011;10387;51.102;6.848;2023-08-31T14:44:02;4.73;;;2.57;;
20456;SDS011;10387;51.102;6.848;2023-08-31T14:46:28;3.17;;;2.60;;
20456;SDS011;10387;51.102;6.848;2023-08-31T14:48:54;4.53;;;2.87;;
20456;SDS011;10387;51.102;6.848;2023-08-31T14:51:20;4.37;;;3.10;;
20456;SDS011;10387;51.102;6.848;2023-08-31T14:53:46;4.90;;;2.63;;
20456;SDS011;10387;51.102;6.848;2023-08-31T14:56:13;2.83;;;2.63;;
20456;SDS011;10387;51.102;6.848;2023-08-31T14:58:39;6.27;;;2.83;;
20456;SDS011;10387;51.102;6.848;2023-08-31T15:01:05;3.30;;;2.90;;
20456;SDS011;10387;51.102;6.848;2023-08-31T15:03:31;4.90;;;3.13;;